Time;durP1;ratioP1;P1;durP2;ratioP2;P2;SDS_P1;SDS_P2;PMS_P1;PMS_P2;Temp;Humidity;BMP_temperature;BMP_pressure;BME280_temperature;BME280_humidity;BME280_pressure;Samples;Min_cycle;Max_cycle;Signal;HPM_P1;HPM_P2
2023/12/26 00:01:26;;;;;;;21.75;3.17;;;;;;;;;;5009825;28;20478;-80
2023/12/26 00:03:51;;;;;;;27.05;3.85;;;;;;;;;;5011269;28;20033;-81
2023/12/26 00:06:20;;;;;;;26.35;4.00;;;;;;;;;;5011551;28;20022;-80
2023/12/26 00:08:46;;;;;;;24.17;4.05;;;;;;;;;;5011096;28;20034;-81
2023/12/26 00:11:11;;;;;;;29.77;4.60;;;;;;;;;;5011114;28;20061;-80
2023/12/26 00:13:36;;;;;;;29.50;4.13;;;;;;;;;;5010065;28;20066;-80
2023/12/26 00:16:02;;;;;;;33.50;5.20;;;;;;;;;;5009552;28;20026;-79
2023/12/26 00:18:27;;;;;;;24.52;3.90;;;;;;;;;;5011154;28;20439;-80
2023/12/26 00:20:53;;;;;;;30.73;4.43;;;;;;;;;;5010846;28;20030;-81
2023/12/26 00:23:18;;;;;;;38.30;4.25;;;;;;;;;;5010703;28;20105;-80
2023/12/26 00:25:44;;;;;;;27.00;3.75;;;;;;;;;;5013706;28;20029;-81
2023/12/26 00:28:11;;;;;;;29.23;3.55;;;;;;;;;;5015490;28;20343;-80
2023/12/26 00:30:37;;;;;;;28.58;4.30;;;;;;;;;;5015143;28;20412;-79
2023/12/26 00:33:05;;;;;;;30.70;4.57;;;;;;;;;;5015101;28;20220;-79
2023/12/26 00:35:30;;;;;;;27.63;4.40;;;;;;;;;;5013629;28;20351;-79
2023/12/26 00:37:57;;;;;;;33.75;4.63;;;;;;;;;;5014858;28;20036;-80
2023/12/26 00:40:23;;;;;;;30.67;4.25;;;;;;;;;;5014848;28;20022;-80
2023/12/26 00:42:48;;;;;;;24.65;4.07;;;;;;;;;;5013482;28;20072;-79
2023/12/26 00:45:14;;;;;;;32.78;4.72;;;;;;;;;;5013515;28;20494;-80
2023/12/26 00:47:39;;;;;;;28.58;3.88;;;;;;;;;;5012874;28;20026;-80
2023/12/26 00:50:05;;;;;;;28.27;3.55;;;;;;;;;;5014681;28;20075;-78
2023/12/26 00:52:31;;;;;;;29.45;4.15;;;;;;;;;;5014330;28;20058;-79
2023/12/26 00:54:57;;;;;;;27.45;3.92;;;;;;;;;;5014352;28;20410;-78
2023/12/26 00:57:22;;;;;;;36.80;4.88;;;;;;;;;;5014782;28;20076;-78
2023/12/26 00:59:47;;;;;;;23.75;3.00;;;;;;;;;;5014059;28;20022;-79
2023/12/26 01:02:13;;;;;;;27.45;3.85;;;;;;;;;;5014417;28;20415;-77
2023/12/26 01:04:38;;;;;;;28.80;3.60;;;;;;;;;;5014291;28;20370;-78
2023/12/26 01:07:04;;;;;;;28.02;3.33;;;;;;;;;;5014334;28;20053;-77
2023/12/26 01:09:30;;;;;;;32.75;3.70;;;;;;;;;;5014251;28;20097;-78
2023/12/26 01:11:56;;;;;;;28.45;3.70;;;;;;;;;;5014263;28;20585;-78
2023/12/26 01:14:21;;;;;;;33.40;3.88;;;;;;;;;;5014675;28;20421;-79
2023/12/26 01:16:46;;;;;;;17.98;2.67;;;;;;;;;;5014216;28;20045;-77
2023/12/26 01:19:12;;;;;;;21.08;2.70;;;;;;;;;;5014549;28;20029;-79
2023/12/26 01:21:37;;;;;;;22.85;3.15;;;;;;;;;;5014097;28;20050;-78
2023/12/26 01:24:03;;;;;;;26.27;3.30;;;;;;;;;;5014845;28;20092;-78
2023/12/26 01:26:30;;;;;;;22.98;3.30;;;;;;;;;;5014326;28;20021;-79
2023/12/26 01:28:55;;;;;;;18.50;3.05;;;;;;;;;;5014345;28;20026;-78
2023/12/26 01:31:21;;;;;;;22.52;2.60;;;;;;;;;;5013956;28;20504;-78
2023/12/26 01:33:46;;;;;;;27.20;3.33;;;;;;;;;;5014525;28;20450;-78
2023/12/26 01:36:11;;;;;;;25.65;3.28;;;;;;;;;;5014136;28;20042;-78
2023/12/26 01:38:36;;;;;;;24.30;2.95;;;;;;;;;;5014265;28;20056;-78
2023/12/26 01:41:04;;;;;;;15.85;2.33;;;;;;;;;;5014271;28;20471;-78
2023/12/26 01:43:30;;;;;;;22.17;2.97;;;;;;;;;;5013716;28;20029;-78
2023/12/26 01:45:57;;;;;;;12.77;2.30;;;;;;;;;;5013989;28;20026;-78
2023/12/26 01:48:23;;;;;;;21.90;2.65;;;;;;;;;;5012498;28;20359;-78
2023/12/26 01:50:48;;;;;;;15.45;2.78;;;;;;;;;;5012005;28;20061;-78
2023/12/26 01:53:14;;;;;;;19.60;2.80;;;;;;;;;;5013921;28;20040;-76
2023/12/26 01:55:40;;;;;;;19.38;2.40;;;;;;;;;;5013917;28;20093;-76
2023/12/26 01:58:05;;;;;;;13.60;2.45;;;;;;;;;;5013750;28;20100;-77
2023/12/26 02:00:30;;;;;;;13.27;2.17;;;;;;;;;;5013768;28;20382;-77
2023/12/26 02:02:56;;;;;;;18.10;2.95;;;;;;;;;;5012069;28;20124;-77
2023/12/26 02:05:21;;;;;;;15.70;1.98;;;;;;;;;;5013818;28;20026;-77
2023/12/26 02:07:46;;;;;;;19.33;2.38;;;;;;;;;;5013321;28;20053;-77
2023/12/26 02:10:12;;;;;;;15.82;2.40;;;;;;;;;;5011946;28;20041;-76
2023/12/26 02:12:37;;;;;;;14.48;1.98;;;;;;;;;;5013354;28;20018;-77
2023/12/26 02:15:03;;;;;;;14.00;2.20;;;;;;;;;;5013162;28;20412;-78
2023/12/26 02:17:29;;;;;;;22.65;2.15;;;;;;;;;;5013294;28;20116;-77
2023/12/26 02:19:54;;;;;;;23.08;2.83;;;;;;;;;;5011516;28;20152;-77
2023/12/26 02:22:20;;;;;;;21.58;2.53;;;;;;;;;;5012812;28;20033;-77
2023/12/26 02:24:47;;;;;;;12.68;2.80;;;;;;;;;;5012788;28;20049;-77
2023/12/26 02:27:16;;;;;;;20.08;2.53;;;;;;;;;;5012694;28;20392;-77
2023/12/26 02:29:42;;;;;;;18.40;2.50;;;;;;;;;;5012797;28;20030;-76
2023/12/26 02:32:09;;;;;;;16.23;2.25;;;;;;;;;;5012683;28;20113;-77
2023/12/26 02:34:34;;;;;;;19.95;2.83;;;;;;;;;;5013652;28;20049;-77
2023/12/26 02:36:59;;;;;;;13.75;2.80;;;;;;;;;;5011873;28;20033;-77
2023/12/26 02:39:26;;;;;;;15.85;2.50;;;;;;;;;;5013117;28;20121;-77
2023/12/26 02:41:52;;;;;;;16.58;2.03;;;;;;;;;;5012561;28;20068;-77
2023/12/26 02:44:17;;;;;;;12.25;1.80;;;;;;;;;;5012697;28;20037;-77
2023/12/26 02:46:42;;;;;;;16.90;2.28;;;;;;;;;;5012675;28;20175;-77
2023/12/26 02:49:07;;;;;;;13.07;1.63;;;;;;;;;;5012105;28;20524;-77
2023/12/26 02:51:33;;;;;;;10.98;2.10;;;;;;;;;;5012678;28;20496;-77
2023/12/26 02:53:58;;;;;;;10.82;2.35;;;;;;;;;;5012047;28;20038;-77
2023/12/26 02:56:23;;;;;;;11.93;1.83;;;;;;;;;;5011647;28;20063;-78
2023/12/26 02:58:48;;;;;;;12.95;2.25;;;;;;;;;;5012402;28;20104;-77
2023/12/26 03:01:13;;;;;;;11.43;1.85;;;;;;;;;;5010823;28;20135;-78
2023/12/26 03:03:39;;;;;;;11.63;1.75;;;;;;;;;;5012025;28;20058;-78
2023/12/26 03:06:07;;;;;;;9.70;1.50;;;;;;;;;;5010728;28;20026;-78
2023/12/26 03:08:32;;;;;;;18.77;2.83;;;;;;;;;;5012566;28;20018;-77
2023/12/26 03:10:57;;;;;;;16.15;1.67;;;;;;;;;;5010680;28;20041;-78
2023/12/26 03:13:23;;;;;;;12.15;2.00;;;;;;;;;;5012150;28;20065;-78
2023/12/26 03:15:48;;;;;;;10.40;1.83;;;;;;;;;;5012044;28;20101;-76
2023/12/26 03:18:13;;;;;;;11.70;2.15;;;;;;;;;;5011672;28;20022;-76
2023/12/26 03:20:38;;;;;;;15.73;2.30;;;;;;;;;;5011878;28;20125;-77
2023/12/26 03:23:04;;;;;;;22.00;2.58;;;;;;;;;;5011816;28;20025;-76
2023/12/26 03:25:29;;;;;;;26.27;4.10;;;;;;;;;;4994249;28;20026;-77
2023/12/26 03:27:54;;;;;;;14.98;2.30;;;;;;;;;;5012236;28;20033;-77
2023/12/26 03:30:19;;;;;;;15.38;2.33;;;;;;;;;;5012149;28;20034;-76
2023/12/26 03:32:45;;;;;;;14.05;1.98;;;;;;;;;;5012029;28;20033;-76
2023/12/26 03:35:10;;;;;;;15.98;2.72;;;;;;;;;;5010102;28;20030;-77
2023/12/26 03:37:35;;;;;;;24.00;2.42;;;;;;;;;;5011589;28;20026;-77
2023/12/26 03:40:00;;;;;;;8.73;2.00;;;;;;;;;;5012112;28;20022;-75
2023/12/26 03:42:26;;;;;;;11.63;1.98;;;;;;;;;;5014047;28;20037;-74
2023/12/26 03:44:51;;;;;;;12.20;2.00;;;;;;;;;;5014001;28;20041;-74
2023/12/26 03:47:16;;;;;;;21.42;3.83;;;;;;;;;;5013640;28;20484;-75
2023/12/26 03:49:41;;;;;;;12.88;1.77;;;;;;;;;;5013983;28;20080;-76
2023/12/26 03:52:07;;;;;;;14.68;2.63;;;;;;;;;;4996670;28;20061;-75
2023/12/26 03:54:33;;;;;;;8.27;1.58;;;;;;;;;;5013944;28;20121;-74
2023/12/26 03:56:58;;;;;;;11.35;1.85;;;;;;;;;;5013802;28;20018;-74
2023/12/26 03:59:24;;;;;;;13.32;2.30;;;;;;;;;;5013804;28;20505;-74
2023/12/26 04:01:49;;;;;;;11.98;1.98;;;;;;;;;;5013810;28;20025;-74
2023/12/26 04:04:15;;;;;;;8.52;1.92;;;;;;;;;;5014099;28;20100;-75
2023/12/26 04:06:40;;;;;;;16.92;2.10;;;;;;;;;;5013853;28;20450;-75
2023/12/26 04:09:05;;;;;;;12.20;2.28;;;;;;;;;;5012648;28;20459;-76
2023/12/26 04:11:32;;;;;;;17.00;2.47;;;;;;;;;;5014159;28;20037;-75
2023/12/26 04:13:57;;;;;;;6.47;1.90;;;;;;;;;;5014265;28;20038;-79
2023/12/26 04:16:22;;;;;;;10.20;1.90;;;;;;;;;;5013803;28;20576;-75
2023/12/26 04:18:47;;;;;;;9.63;2.03;;;;;;;;;;5013652;28;20030;-74
2023/12/26 04:21:13;;;;;;;15.45;2.17;;;;;;;;;;5013295;28;20022;-74
2023/12/26 04:23:38;;;;;;;12.70;1.77;;;;;;;;;;5013214;28;20049;-75
2023/12/26 04:26:03;;;;;;;18.05;2.97;;;;;;;;;;5013191;28;20017;-75
2023/12/26 04:28:28;;;;;;;10.27;1.90;;;;;;;;;;5013541;28;20458;-75
2023/12/26 04:30:54;;;;;;;7.15;1.63;;;;;;;;;;5013278;28;20026;-75
2023/12/26 04:33:19;;;;;;;12.98;2.38;;;;;;;;;;5013461;28;20386;-75
2023/12/26 04:35:45;;;;;;;9.48;1.95;;;;;;;;;;5013454;28;20397;-75
2023/12/26 04:38:12;;;;;;;13.93;1.88;;;;;;;;;;5013368;28;20052;-75
2023/12/26 04:40:37;;;;;;;10.57;2.20;;;;;;;;;;5012919;28;20374;-75
2023/12/26 04:43:05;;;;;;;16.08;1.80;;;;;;;;;;5013095;28;20026;-76
2023/12/26 04:45:30;;;;;;;9.15;2.05;;;;;;;;;;5012785;28;20029;-75
2023/12/26 04:47:56;;;;;;;14.10;1.83;;;;;;;;;;5013950;28;20017;-75
2023/12/26 04:50:21;;;;;;;11.02;2.08;;;;;;;;;;5013248;28;20018;-75
2023/12/26 04:52:46;;;;;;;6.82;1.67;;;;;;;;;;5013777;28;20061;-75
2023/12/26 04:55:11;;;;;;;18.13;2.38;;;;;;;;;;5012308;28;20041;-76
2023/12/26 04:57:37;;;;;;;21.35;2.80;;;;;;;;;;5012032;28;20096;-76
2023/12/26 05:00:02;;;;;;;17.88;2.28;;;;;;;;;;5013187;28;20049;-87
2023/12/26 05:02:28;;;;;;;13.23;1.83;;;;;;;;;;5013202;28;20072;-75
2023/12/26 05:04:53;;;;;;;11.68;2.10;;;;;;;;;;5011707;28;20049;-75
2023/12/26 05:07:18;;;;;;;14.18;2.13;;;;;;;;;;5012798;28;20018;-76
2023/12/26 05:09:44;;;;;;;12.23;1.85;;;;;;;;;;5013182;28;20100;-76
2023/12/26 05:12:09;;;;;;;13.15;2.60;;;;;;;;;;5015785;28;20018;-75
2023/12/26 05:14:34;;;;;;;12.15;1.67;;;;;;;;;;5016823;28;20084;-76
2023/12/26 05:16:59;;;;;;;11.82;2.20;;;;;;;;;;5016808;28;20025;-75
2023/12/26 05:19:25;;;;;;;16.35;2.40;;;;;;;;;;5016730;28;20026;-75
2023/12/26 05:21:51;;;;;;;15.75;2.88;;;;;;;;;;5016697;28;20020;-76
2023/12/26 05:24:16;;;;;;;12.35;1.98;;;;;;;;;;5016255;28;20251;-76
2023/12/26 05:26:42;;;;;;;9.95;1.75;;;;;;;;;;5017101;28;20052;-74
2023/12/26 05:29:08;;;;;;;11.13;1.60;;;;;;;;;;5016378;28;20425;-75
2023/12/26 05:31:33;;;;;;;11.23;1.90;;;;;;;;;;5016501;28;20026;-74
2023/12/26 05:33:59;;;;;;;16.15;2.03;;;;;;;;;;5016472;28;20021;-74
2023/12/26 05:36:24;;;;;;;16.35;2.47;;;;;;;;;;5016385;28;20105;-74
2023/12/26 05:38:50;;;;;;;14.95;1.85;;;;;;;;;;5016841;28;20148;-74
2023/12/26 05:41:15;;;;;;;11.85;2.10;;;;;;;;;;5016922;28;20033;-75
2023/12/26 05:43:40;;;;;;;18.23;2.17;;;;;;;;;;5016356;28;20036;-74
2023/12/26 05:46:05;;;;;;;16.20;2.72;;;;;;;;;;5016262;28;20038;-75
2023/12/26 05:48:31;;;;;;;9.35;1.70;;;;;;;;;;5016068;28;20026;-75
2023/12/26 05:50:56;;;;;;;14.68;2.58;;;;;;;;;;5015596;28;20026;-75
2023/12/26 05:53:22;;;;;;;17.10;2.25;;;;;;;;;;5014887;28;20482;-75
2023/12/26 05:55:48;;;;;;;18.98;2.35;;;;;;;;;;5015471;28;20026;-75
2023/12/26 05:58:13;;;;;;;10.10;2.03;;;;;;;;;;5015640;28;20018;-75
2023/12/26 06:00:38;;;;;;;16.27;2.35;;;;;;;;;;5015927;28;20030;-74
2023/12/26 06:03:03;;;;;;;9.15;1.90;;;;;;;;;;5015850;28;20030;-74
2023/12/26 06:05:28;;;;;;;8.13;2.05;;;;;;;;;;5015797;28;20433;-75
2023/12/26 06:07:54;;;;;;;19.83;2.55;;;;;;;;;;5014563;28;20077;-76
2023/12/26 06:10:19;;;;;;;16.23;2.00;;;;;;;;;;5015737;28;20362;-75
2023/12/26 06:12:44;;;;;;;14.40;2.60;;;;;;;;;;5015669;28;20383;-75
2023/12/26 06:15:09;;;;;;;16.77;2.75;;;;;;;;;;5015315;28;20030;-75
2023/12/26 06:17:36;;;;;;;14.25;2.58;;;;;;;;;;5015498;28;20032;-74
2023/12/26 06:20:02;;;;;;;13.20;2.03;;;;;;;;;;5015292;28;20030;-74
2023/12/26 06:22:28;;;;;;;11.82;1.90;;;;;;;;;;5014426;28;20026;-74
2023/12/26 06:24:53;;;;;;;15.05;2.50;;;;;;;;;;5014204;28;20129;-75
2023/12/26 06:27:18;;;;;;;15.55;2.90;;;;;;;;;;5015647;28;20057;-74
2023/12/26 06:29:43;;;;;;;12.50;2.58;;;;;;;;;;5015438;28;20022;-74
2023/12/26 06:32:09;;;;;;;15.00;2.42;;;;;;;;;;5015340;28;20018;-74
2023/12/26 06:34:34;;;;;;;18.10;2.10;;;;;;;;;;5014990;28;20105;-75
2023/12/26 06:36:59;;;;;;;13.27;2.13;;;;;;;;;;5015375;28;20121;-74
2023/12/26 06:39:24;;;;;;;18.88;2.50;;;;;;;;;;5015214;28;20072;-74
2023/12/26 06:41:50;;;;;;;9.55;2.15;;;;;;;;;;5014191;28;20076;-75
2023/12/26 06:44:15;;;;;;;12.18;2.70;;;;;;;;;;5013850;28;20036;-76
2023/12/26 06:46:41;;;;;;;9.77;1.88;;;;;;;;;;5014988;28;20042;-75
2023/12/26 06:49:07;;;;;;;16.33;2.10;;;;;;;;;;5014899;28;20079;-75
2023/12/26 06:51:32;;;;;;;14.73;2.00;;;;;;;;;;5014596;28;20380;-75
2023/12/26 06:53:57;;;;;;;11.32;1.77;;;;;;;;;;5015253;28;20455;-75
2023/12/26 06:56:23;;;;;;;15.02;1.83;;;;;;;;;;5015125;28;20092;-75
2023/12/26 06:58:48;;;;;;;14.45;2.17;;;;;;;;;;5014758;28;20061;-74
2023/12/26 07:01:13;;;;;;;25.02;2.90;;;;;;;;;;5014807;28;20029;-75
2023/12/26 07:03:39;;;;;;;13.35;2.72;;;;;;;;;;5014630;28;20022;-75
2023/12/26 07:06:04;;;;;;;9.18;2.10;;;;;;;;;;5013778;28;20477;-75
2023/12/26 07:08:29;;;;;;;9.32;1.70;;;;;;;;;;5014629;28;20144;-75
2023/12/26 07:10:55;;;;;;;14.88;1.80;;;;;;;;;;5014694;28;20097;-75
2023/12/26 07:13:20;;;;;;;14.52;2.08;;;;;;;;;;5014591;28;20045;-74
2023/12/26 07:15:45;;;;;;;14.88;2.42;;;;;;;;;;5014788;28;20137;-75
2023/12/26 07:18:11;;;;;;;11.88;2.28;;;;;;;;;;5014433;28;20100;-73
2023/12/26 07:20:36;;;;;;;7.18;1.73;;;;;;;;;;5014418;28;20030;-74
2023/12/26 07:23:01;;;;;;;13.15;2.03;;;;;;;;;;5013173;28;20030;-74
2023/12/26 07:25:29;;;;;;;9.63;2.25;;;;;;;;;;5014374;28;20034;-76
2023/12/26 07:27:54;;;;;;;15.23;1.88;;;;;;;;;;5014301;28;20087;-75
2023/12/26 07:30:19;;;;;;;13.77;2.22;;;;;;;;;;5014307;28;20029;-74
2023/12/26 07:32:44;;;;;;;14.40;2.05;;;;;;;;;;5013149;28;20022;-75
2023/12/26 07:35:10;;;;;;;16.05;2.30;;;;;;;;;;5013634;28;20484;-74
2023/12/26 07:37:35;;;;;;;12.48;1.95;;;;;;;;;;5014133;28;20470;-74
2023/12/26 07:40:00;;;;;;;15.13;2.13;;;;;;;;;;5014150;28;20028;-74
2023/12/26 07:42:26;;;;;;;13.07;2.10;;;;;;;;;;5012663;28;20105;-85
2023/12/26 07:44:51;;;;;;;11.93;2.30;;;;;;;;;;5013903;28;20030;-75
2023/12/26 07:47:16;;;;;;;9.13;1.77;;;;;;;;;;5014530;28;20030;-75
2023/12/26 07:49:41;;;;;;;13.15;3.03;;;;;;;;;;5014015;28;20029;-75
2023/12/26 07:52:07;;;;;;;15.40;2.03;;;;;;;;;;5013970;28;20061;-75
2023/12/26 07:54:32;;;;;;;14.90;2.33;;;;;;;;;;5012621;28;20336;-75
2023/12/26 07:56:57;;;;;;;19.10;2.92;;;;;;;;;;5012701;28;20469;-74
2023/12/26 07:59:22;;;;;;;15.80;3.05;;;;;;;;;;5013809;28;20018;-74
2023/12/26 08:01:48;;;;;;;13.20;2.22;;;;;;;;;;5014096;28;20100;-74
2023/12/26 08:04:13;;;;;;;18.80;2.90;;;;;;;;;;5012435;28;20418;-74
2023/12/26 08:06:38;;;;;;;16.55;2.83;;;;;;;;;;5013450;28;20108;-73
2023/12/26 08:09:04;;;;;;;17.00;2.95;;;;;;;;;;4996160;28;20022;-75
2023/12/26 08:11:29;;;;;;;14.40;2.65;;;;;;;;;;5012779;28;20026;-84
2023/12/26 08:13:54;;;;;;;15.90;2.22;;;;;;;;;;5013331;28;20034;-74
2023/12/26 08:16:20;;;;;;;17.75;2.78;;;;;;;;;;5013374;28;20022;-75
2023/12/26 08:18:45;;;;;;;22.00;3.33;;;;;;;;;;5013012;28;20036;-74
2023/12/26 08:21:10;;;;;;;21.42;2.95;;;;;;;;;;5013334;28;20109;-75
2023/12/26 08:23:36;;;;;;;14.32;2.78;;;;;;;;;;5013207;28;20081;-74
2023/12/26 08:26:07;;;;;;;25.30;2.70;;;;;;;;;;5012422;28;20022;-75
2023/12/26 08:28:33;;;;;;;20.90;3.17;;;;;;;;;;5013421;28;20105;-76
2023/12/26 08:30:58;;;;;;;20.02;2.70;;;;;;;;;;5012356;28;20471;-75
2023/12/26 08:33:24;;;;;;;13.15;2.00;;;;;;;;;;5014004;28;20052;-76
2023/12/26 08:35:50;;;;;;;22.50;2.67;;;;;;;;;;5013426;28;20022;-75
2023/12/26 08:38:15;;;;;;;15.52;2.63;;;;;;;;;;5013690;28;20026;-76
2023/12/26 08:40:41;;;;;;;11.73;2.78;;;;;;;;;;5013386;28;20493;-75
2023/12/26 08:43:06;;;;;;;23.27;4.07;;;;;;;;;;5013574;28;20458;-74
2023/12/26 08:45:32;;;;;;;25.20;3.00;;;;;;;;;;5014057;28;20026;-76
2023/12/26 08:47:58;;;;;;;14.40;2.55;;;;;;;;;;5016825;28;20028;-74
2023/12/26 08:50:24;;;;;;;15.73;3.03;;;;;;;;;;5016288;28;20022;-74
2023/12/26 08:52:49;;;;;;;23.40;2.72;;;;;;;;;;5016835;28;20112;-76
2023/12/26 08:55:15;;;;;;;15.00;2.33;;;;;;;;;;5017262;28;20021;-76
2023/12/26 08:57:40;;;;;;;15.73;2.20;;;;;;;;;;5017683;28;20485;-76
2023/12/26 09:00:06;;;;;;;15.63;2.40;;;;;;;;;;5018793;28;20382;-75
2023/12/26 09:02:31;;;;;;;16.23;2.42;;;;;;;;;;5017530;28;20134;-75
2023/12/26 09:04:58;;;;;;;16.40;2.53;;;;;;;;;;5016892;28;20040;-78
2023/12/26 09:07:24;;;;;;;22.52;2.95;;;;;;;;;;5016766;28;20108;-74
2023/12/26 09:09:49;;;;;;;14.93;3.13;;;;;;;;;;5016801;28;20073;-75
2023/12/26 09:12:15;;;;;;;26.92;2.88;;;;;;;;;;5016210;28;20083;-75
2023/12/26 09:14:40;;;;;;;16.00;2.60;;;;;;;;;;5016520;28;20030;-74
2023/12/26 09:17:06;;;;;;;12.45;2.50;;;;;;;;;;5015149;28;20496;-76
2023/12/26 09:19:31;;;;;;;20.45;3.42;;;;;;;;;;5016324;28;20020;-74
2023/12/26 09:21:56;;;;;;;18.27;2.42;;;;;;;;;;5016640;28;20037;-74
2023/12/26 09:24:21;;;;;;;16.10;2.38;;;;;;;;;;5016279;28;20111;-76
2023/12/26 09:26:47;;;;;;;18.80;2.88;;;;;;;;;;5016169;28;20034;-75
2023/12/26 09:29:12;;;;;;;16.38;2.53;;;;;;;;;;5016348;28;20101;-76
2023/12/26 09:31:37;;;;;;;13.10;2.58;;;;;;;;;;5016411;28;20018;-74
2023/12/26 09:34:02;;;;;;;19.30;2.55;;;;;;;;;;5016078;28;20033;-75
2023/12/26 09:36:28;;;;;;;17.50;2.70;;;;;;;;;;5014839;28;20022;-75
2023/12/26 09:38:53;;;;;;;16.40;2.90;;;;;;;;;;5015992;28;20105;-75
2023/12/26 09:41:22;;;;;;;10.18;2.25;;;;;;;;;;5016156;28;20022;-77
2023/12/26 09:43:47;;;;;;;16.65;2.90;;;;;;;;;;5015611;28;20022;-75
2023/12/26 09:46:13;;;;;;;18.67;2.55;;;;;;;;;;5015756;28;20036;-78
2023/12/26 09:48:38;;;;;;;12.20;2.47;;;;;;;;;;5015685;28;20053;-75
2023/12/26 09:51:07;;;;;;;17.52;2.63;;;;;;;;;;5015411;28;20018;-78
2023/12/26 09:53:37;;;;;;;18.27;3.10;;;;;;;;;;5016186;28;20045;-75
2023/12/26 09:56:02;;;;;;;21.95;3.17;;;;;;;;;;5015842;28;20029;-77
2023/12/26 09:58:29;;;;;;;15.80;2.80;;;;;;;;;;5015535;28;20367;-76
2023/12/26 10:00:55;;;;;;;12.55;2.80;;;;;;;;;;5015429;28;20449;-76
2023/12/26 10:03:21;;;;;;;15.13;3.15;;;;;;;;;;5015958;28;20117;-74
2023/12/26 10:05:46;;;;;;;17.33;2.90;;;;;;;;;;5015233;28;20026;-73
2023/12/26 10:08:11;;;;;;;14.73;2.70;;;;;;;;;;5014827;28;20026;-76
2023/12/26 10:10:37;;;;;;;23.25;2.97;;;;;;;;;;5015367;28;20036;-76
2023/12/26 10:13:02;;;;;;;18.08;2.53;;;;;;;;;;5015301;28;20026;-74
2023/12/26 10:15:27;;;;;;;29.92;3.25;;;;;;;;;;5016070;28;20033;-74
2023/12/26 10:17:53;;;;;;;24.92;2.83;;;;;;;;;;5013872;28;20030;-73
2023/12/26 10:20:19;;;;;;;22.75;2.90;;;;;;;;;;5015687;28;20034;-74
2023/12/26 10:22:47;;;;;;;18.85;3.28;;;;;;;;;;5015901;28;20122;-74
2023/12/26 10:25:13;;;;;;;18.92;3.08;;;;;;;;;;5015790;28;20022;-74
2023/12/26 10:27:38;;;;;;;20.73;2.53;;;;;;;;;;5015167;28;20022;-74
2023/12/26 10:30:04;;;;;;;11.70;2.00;;;;;;;;;;5015507;28;20022;-74
2023/12/26 10:32:30;;;;;;;17.15;2.97;;;;;;;;;;5016031;28;20022;-74
2023/12/26 10:34:55;;;;;;;14.57;2.20;;;;;;;;;;5014933;28;20033;-77
2023/12/26 10:37:25;;;;;;;16.08;2.20;;;;;;;;;;5015416;28;20052;-76
2023/12/26 10:39:51;;;;;;;13.18;2.35;;;;;;;;;;5014538;28;20018;-78
2023/12/26 10:42:16;;;;;;;13.88;2.55;;;;;;;;;;5014731;28;20468;-77
2023/12/26 10:45:04;;;;;;;18.70;3.47;;;;;;;;;;5015280;28;20348;-78
2023/12/26 10:47:30;;;;;;;17.00;2.20;;;;;;;;;;5015208;28;20084;-77
2023/12/26 10:49:59;;;;;;;22.13;3.00;;;;;;;;;;5014833;28;20379;-76
2023/12/26 10:52:25;;;;;;;12.85;3.60;;;;;;;;;;5014444;28;20136;-80
2023/12/26 10:54:51;;;;;;;16.17;2.90;;;;;;;;;;5013366;28;20026;-76
2023/12/26 10:57:17;;;;;;;24.58;2.90;;;;;;;;;;5014829;28;20029;-76
2023/12/26 13:53:48;;;;;;;13.52;2.00;;;;;;;;;;5016991;28;20053;-74
2023/12/26 13:56:32;;;;;;;10.45;2.15;;;;;;;;;;5015966;28;20521;-74
2023/12/26 13:59:16;;;;;;;14.25;2.45;;;;;;;;;;5016742;28;20022;-74
2023/12/26 14:01:59;;;;;;;10.68;2.40;;;;;;;;;;5015067;28;20451;-73
2023/12/26 14:04:43;;;;;;;13.27;2.42;;;;;;;;;;5015172;28;20053;-74
2023/12/26 14:07:28;;;;;;;12.63;2.10;;;;;;;;;;5015682;28;20463;-73
2023/12/26 14:10:12;;;;;;;6.15;1.65;;;;;;;;;;5015754;28;20018;-74
2023/12/26 14:12:56;;;;;;;11.80;2.03;;;;;;;;;;5015659;28;20030;-73
2023/12/26 14:15:40;;;;;;;8.18;2.10;;;;;;;;;;5015533;28;20029;-74
2023/12/26 14:18:23;;;;;;;11.32;2.03;;;;;;;;;;5015746;28;20072;-73
2023/12/26 14:21:07;;;;;;;13.13;2.70;;;;;;;;;;5015548;28;20017;-74
2023/12/26 14:23:51;;;;;;;19.80;2.78;;;;;;;;;;5015044;28;20026;-72
2023/12/26 14:26:35;;;;;;;7.35;2.13;;;;;;;;;;5014696;28;20025;-75
2023/12/26 14:29:18;;;;;;;12.93;3.53;;;;;;;;;;5014235;28;20044;-76
2023/12/26 14:32:02;;;;;;;9.57;2.05;;;;;;;;;;5014486;28;20072;-76
2023/12/26 14:34:46;;;;;;;17.35;2.47;;;;;;;;;;5014934;28;20029;-76
2023/12/26 14:37:30;;;;;;;8.07;2.00;;;;;;;;;;5014644;28;20048;-75
2023/12/26 14:40:14;;;;;;;10.10;2.22;;;;;;;;;;5014410;28;20072;-74
2023/12/26 14:42:57;;;;;;;14.50;3.08;;;;;;;;;;5014561;28;20378;-73
2023/12/26 14:45:41;;;;;;;11.95;2.55;;;;;;;;;;5014173;28;20035;-73
2023/12/26 14:48:25;;;;;;;11.43;2.08;;;;;;;;;;5015270;28;20029;-73
2023/12/26 14:51:09;;;;;;;10.30;2.20;;;;;;;;;;5014428;28;20482;-76
2023/12/26 14:53:53;;;;;;;8.60;1.70;;;;;;;;;;5014305;28;20077;-74
2023/12/26 14:56:37;;;;;;;18.83;2.25;;;;;;;;;;5014589;28;20108;-76
2023/12/26 14:59:21;;;;;;;12.93;1.80;;;;;;;;;;5014317;28;20526;-74
2023/12/26 15:01:59;;;;;;;12.73;1.40;;;;;;;;;;5014429;28;20022;-73
2023/12/26 15:04:25;;;;;;;6.10;1.65;;;;;;;;;;5014269;28;20053;-76
2023/12/26 15:06:50;;;;;;;12.15;2.20;;;;;;;;;;5014266;28;20108;-73
2023/12/26 15:09:15;;;;;;;13.93;1.73;;;;;;;;;;5014162;28;20100;-73
2023/12/26 15:11:41;;;;;;;9.70;1.77;;;;;;;;;;5014564;28;20099;-74
2023/12/26 15:14:09;;;;;;;12.45;1.70;;;;;;;;;;5014423;28;20029;-75
2023/12/26 15:16:34;;;;;;;6.38;1.13;;;;;;;;;;5014072;28;20026;-74
2023/12/26 15:19:00;;;;;;;4.20;1.20;;;;;;;;;;5013422;28;20022;-74
2023/12/26 15:21:25;;;;;;;7.25;1.73;;;;;;;;;;5013824;28;20026;-76
2023/12/26 15:23:51;;;;;;;10.43;1.73;;;;;;;;;;5013379;28;20164;-77
2023/12/26 15:26:16;;;;;;;11.45;1.73;;;;;;;;;;5014010;28;20481;-75
2023/12/26 15:28:42;;;;;;;8.48;1.45;;;;;;;;;;5013548;28;20064;-75
2023/12/26 15:31:15;;;;;;;15.00;2.42;;;;;;;;;;5013599;28;20038;-75
2023/12/26 15:33:42;;;;;;;8.45;1.50;;;;;;;;;;5013545;28;20386;-75
2023/12/26 15:36:08;;;;;;;4.65;1.20;;;;;;;;;;5013617;28;20056;-74
2023/12/26 15:38:33;;;;;;;9.63;1.42;;;;;;;;;;5014054;28;20026;-78
2023/12/26 15:40:58;;;;;;;6.28;1.48;;;;;;;;;;5012225;28;20083;-76
2023/12/26 15:43:23;;;;;;;10.10;1.90;;;;;;;;;;5013413;28;20081;-78
2023/12/26 15:45:49;;;;;;;12.23;1.60;;;;;;;;;;5013847;28;20026;-75
2023/12/26 15:48:14;;;;;;;7.43;1.75;;;;;;;;;;5013577;28;20029;-76
2023/12/26 15:50:39;;;;;;;13.02;2.20;;;;;;;;;;5013604;28;20084;-75
2023/12/26 15:53:04;;;;;;;6.75;1.83;;;;;;;;;;5013840;28;20056;-77
2023/12/26 15:55:30;;;;;;;5.10;1.70;;;;;;;;;;5013364;28;20056;-74
2023/12/26 15:57:55;;;;;;;6.00;1.73;;;;;;;;;;5013234;28;20037;-75
2023/12/26 16:00:20;;;;;;;14.55;2.50;;;;;;;;;;5012769;28;20025;-74
2023/12/26 16:02:45;;;;;;;16.48;2.97;;;;;;;;;;5012839;28;20065;-75
2023/12/26 16:05:11;;;;;;;10.85;3.03;;;;;;;;;;5013375;28;20398;-75
2023/12/26 16:07:36;;;;;;;13.98;2.22;;;;;;;;;;5013915;28;20030;-74
2023/12/26 16:10:01;;;;;;;8.30;1.67;;;;;;;;;;5013130;28;20037;-75
2023/12/26 16:12:26;;;;;;;5.25;1.60;;;;;;;;;;5013330;28;20037;-74
2023/12/26 16:14:52;;;;;;;11.55;2.25;;;;;;;;;;5012867;28;20022;-74
2023/12/26 16:17:17;;;;;;;5.13;1.77;;;;;;;;;;5012712;28;20025;-75
2023/12/26 16:19:42;;;;;;;10.07;1.67;;;;;;;;;;5013183;28;20026;-73
2023/12/26 16:22:07;;;;;;;10.95;2.05;;;;;;;;;;5013231;28;20050;-76
2023/12/26 16:24:33;;;;;;;9.02;1.80;;;;;;;;;;5013158;28;20033;-74
2023/12/26 16:26:59;;;;;;;7.57;1.42;;;;;;;;;;5013147;28;20465;-75
2023/12/26 16:29:24;;;;;;;4.32;1.90;;;;;;;;;;5013198;28;20034;-75
2023/12/26 16:31:49;;;;;;;15.23;1.88;;;;;;;;;;5013036;28;20053;-74
2023/12/26 16:34:15;;;;;;;14.38;1.90;;;;;;;;;;5013235;28;20037;-73
2023/12/26 16:36:40;;;;;;;12.48;1.92;;;;;;;;;;5013137;28;20386;-73
2023/12/26 16:39:05;;;;;;;13.13;4.07;;;;;;;;;;5013180;28;20172;-74
2023/12/26 16:41:30;;;;;;;10.55;1.70;;;;;;;;;;5013467;28;20029;-78
2023/12/26 16:43:55;;;;;;;5.63;2.08;;;;;;;;;;5012694;28;20018;-76
2023/12/26 16:46:23;;;;;;;14.77;2.55;;;;;;;;;;5013122;28;20025;-76
2023/12/26 16:48:49;;;;;;;6.78;1.63;;;;;;;;;;5013396;28;20105;-74
2023/12/26 16:51:14;;;;;;;7.97;2.08;;;;;;;;;;5012356;28;20145;-73
2023/12/26 16:53:40;;;;;;;9.13;1.70;;;;;;;;;;5014108;28;20108;-74
2023/12/26 16:56:09;;;;;;;11.02;2.22;;;;;;;;;;5012843;28;20109;-74
2023/12/26 16:58:34;;;;;;;9.05;2.17;;;;;;;;;;5012913;28;20105;-75
2023/12/26 17:01:00;;;;;;;14.10;2.70;;;;;;;;;;5012587;28;20493;-74
2023/12/26 17:03:25;;;;;;;5.43;2.00;;;;;;;;;;5012609;28;20037;-73
2023/12/26 17:05:50;;;;;;;10.23;2.70;;;;;;;;;;5012881;28;20034;-74
2023/12/26 17:08:15;;;;;;;9.10;4.55;;;;;;;;;;5015230;28;20030;-74
2023/12/26 17:10:41;;;;;;;13.15;3.95;;;;;;;;;;5016599;28;20022;-74
2023/12/26 17:13:06;;;;;;;24.95;11.95;;;;;;;;;;5016293;28;20090;-74
2023/12/26 17:15:31;;;;;;;23.48;11.15;;;;;;;;;;5016518;28;20401;-75
2023/12/26 17:17:56;;;;;;;29.15;14.23;;;;;;;;;;5016057;28;20057;-75
2023/12/26 17:20:22;;;;;;;54.17;32.95;;;;;;;;;;5016001;28;20022;-76
2023/12/26 17:22:47;;;;;;;53.97;30.85;;;;;;;;;;5015757;28;20026;-84